Time;durP1;ratioP1;P1;durP2;ratioP2;P2;SDS_P1;SDS_P2;PMS_P1;PMS_P2;Temp;Humidity;BMP_temperature;BMP_pressure;BME280_temperature;BME280_humidity;BME280_pressure;Samples;Min_cycle;Max_cycle;Signal;HPM_P1;HPM_P2
2023/06/22 00:02:01;;;;;;;2.78;1.95;;;20.60;99.90;;;;;;5035418;28;20025;-78
2023/06/22 00:04:27;;;;;;;2.60;1.67;;;20.60;99.90;;;;;;5002331;28;20466;-78
2023/06/22 00:06:53;;;;;;;2.10;1.30;;;20.60;99.90;;;;;;5003019;28;20034;-78
2023/06/22 00:09:18;;;;;;;2.58;1.65;;;20.60;99.90;;;;;;5003973;28;20674;-78
2023/06/22 00:11:44;;;;;;;2.00;1.52;;;20.60;99.90;;;;;;5003899;28;20021;-79
2023/06/22 00:14:10;;;;;;;2.30;1.38;;;20.50;99.90;;;;;;5001735;28;20034;-79
2023/06/22 00:16:36;;;;;;;1.88;1.40;;;20.50;99.90;;;;;;5003529;28;20034;-79
2023/06/22 00:19:02;;;;;;;2.33;1.48;;;20.50;99.90;;;;;;5002821;28;20033;-79
2023/06/22 00:21:28;;;;;;;2.20;1.33;;;20.50;99.90;;;;;;5002914;28;20044;-78
2023/06/22 00:23:54;;;;;;;2.22;1.25;;;20.50;99.90;;;;;;5034690;28;20034;-78
2023/06/22 00:26:20;;;;;;;2.65;1.60;;;20.40;99.90;;;;;;4981274;28;20113;-78
2023/06/22 00:28:46;;;;;;;3.05;1.60;;;20.40;99.90;;;;;;4983615;28;20372;-78
2023/06/22 00:31:12;;;;;;;2.97;1.50;;;20.30;99.90;;;;;;5015005;28;20022;-78
2023/06/22 00:33:38;;;;;;;1.63;1.30;;;20.30;99.90;;;;;;5014906;28;22398;-79
2023/06/22 00:36:04;;;;;;;2.20;1.38;;;20.30;99.90;;;;;;4984023;28;20089;-77
2023/06/22 00:38:31;;;;;;;1.70;1.30;;;20.20;99.90;;;;;;4984722;28;20042;-77
2023/06/22 00:40:57;;;;;;;2.22;1.30;;;20.20;99.90;;;;;;4983372;28;20050;-77
2023/06/22 00:43:23;;;;;;;2.05;1.30;;;20.10;99.90;;;;;;4983125;28;20617;-78
2023/06/22 00:45:52;;;;;;;2.03;1.50;;;20.10;99.90;;;;;;4977264;28;20026;-77
2023/06/22 00:48:18;;;;;;;2.65;1.58;;;20.00;99.90;;;;;;4977681;28;20041;-78
2023/06/22 00:50:44;;;;;;;2.30;1.50;;;20.00;99.90;;;;;;4982466;28;20026;-78
2023/06/22 00:53:10;;;;;;;2.17;1.35;;;20.00;99.90;;;;;;4983827;28;20587;-78
2023/06/22 00:55:42;;;;;;;2.70;1.83;;;20.00;99.90;;;;;;4983595;28;20490;-77
2023/06/22 00:58:10;;;;;;;2.72;1.67;;;19.90;99.90;;;;;;4983537;28;20039;-78
2023/06/22 01:00:36;;;;;;;2.45;1.33;;;19.90;99.90;;;;;;4981429;28;20742;-78
2023/06/22 01:03:03;;;;;;;2.70;1.67;;;19.90;99.90;;;;;;4982830;28;20625;-78
2023/06/22 01:05:31;;;;;;;2.42;1.45;;;19.90;99.90;;;;;;4976671;28;20034;-78
2023/06/22 01:08:22;;;;;;;2.55;1.30;;;19.80;99.90;;;;;;5014173;28;20023;-78
2023/06/22 01:10:57;;;;;;;1.90;1.20;;;19.80;99.90;;;;;;4981480;28;20041;-78
2023/06/22 01:13:50;;;;;;;2.13;1.30;;;19.70;99.90;;;;;;4983631;28;20058;-78
2023/06/22 01:16:20;;;;;;;;;;;19.70;99.90;;;;;;5015802;28;20022;-78
2023/06/22 01:18:50;;;;;;;2.22;1.40;;;19.60;99.90;;;;;;4978449;28;20012;-78
2023/06/22 01:21:19;;;;;;;2.20;1.33;;;19.70;99.90;;;;;;4983419;28;20497;-77
2023/06/22 01:24:05;;;;;;;2.75;1.50;;;19.60;99.90;;;;;;4993061;28;20034;-77
2023/06/22 01:27:04;;;;;;;1.98;1.45;;;19.60;99.90;;;;;;4988222;28;20059;-78
2023/06/22 01:29:32;;;;;;;3.20;1.73;;;19.60;99.90;;;;;;4976025;28;20038;-78
2023/06/22 01:31:59;;;;;;;3.85;1.85;;;19.50;99.90;;;;;;4981313;28;20032;-77
2023/06/22 01:34:25;;;;;;;2.65;1.63;;;19.40;99.90;;;;;;4974233;28;20053;-77
2023/06/22 01:36:52;;;;;;;4.28;1.80;;;19.40;99.90;;;;;;4977929;28;20041;-78
2023/06/22 01:39:18;;;;;;;2.95;1.40;;;19.30;99.90;;;;;;4982613;28;20038;-78
2023/06/22 01:41:44;;;;;;;2.28;1.40;;;19.30;99.90;;;;;;4982699;28;20038;-78
2023/06/22 01:44:12;;;;;;;2.72;1.50;;;19.30;99.90;;;;;;5013957;28;20081;-78
2023/06/22 01:46:39;;;;;;;2.85;1.33;;;19.30;99.90;;;;;;5014553;28;20403;-77
2023/06/22 01:49:06;;;;;;;2.65;1.80;;;19.30;99.90;;;;;;5012761;28;20030;-78
2023/06/22 01:51:32;;;;;;;3.10;1.40;;;19.30;99.90;;;;;;5013831;28;20494;-78
2023/06/22 01:53:57;;;;;;;3.08;1.85;;;19.30;99.90;;;;;;4980942;28;20030;-77
2023/06/22 01:56:23;;;;;;;2.67;1.63;;;19.30;99.90;;;;;;5013086;28;20034;-77
2023/06/22 01:59:01;;;;;;;2.78;1.50;;;19.20;99.90;;;;;;4980715;28;20418;-77
2023/06/22 02:01:36;;;;;;;2.42;1.73;;;19.20;99.90;;;;;;4975998;28;20069;-77
2023/06/22 02:04:08;;;;;;;2.85;1.55;;;19.20;99.90;;;;;;4975508;28;20594;-77
2023/06/22 02:06:38;;;;;;;2.97;1.88;;;19.20;99.90;;;;;;4982740;28;20398;-77
2023/06/22 02:09:11;;;;;;;2.45;1.70;;;19.10;99.90;;;;;;4976283;28;20037;-77
2023/06/22 02:11:40;;;;;;;2.42;1.60;;;19.10;99.90;;;;;;4980882;28;20085;-78
2023/06/22 02:14:06;;;;;;;2.05;1.48;;;19.10;99.90;;;;;;4981599;28;20531;-77
2023/06/22 02:16:32;;;;;;;2.38;1.33;;;19.10;99.90;;;;;;5013570;28;20946;-77
2023/06/22 02:19:05;;;;;;;3.75;1.63;;;19.10;99.90;;;;;;4981573;28;20025;-78
2023/06/22 02:21:32;;;;;;;1.90;1.60;;;19.10;99.90;;;;;;5014218;28;20033;-77
2023/06/22 02:23:58;;;;;;;2.55;1.70;;;19.10;99.90;;;;;;4981541;28;20164;-77
2023/06/22 02:26:25;;;;;;;1.95;1.35;;;19.10;99.90;;;;;;5012315;28;20053;-77
2023/06/22 02:28:51;;;;;;;3.72;1.60;;;19.10;99.90;;;;;;5020491;28;20025;-77
2023/06/22 02:31:18;;;;;;;2.50;1.70;;;19.10;99.90;;;;;;5021590;28;20028;-76
2023/06/22 02:33:43;;;;;;;2.55;1.83;;;19.10;99.90;;;;;;5021218;28;20060;-77
2023/06/22 02:36:09;;;;;;;3.25;1.63;;;19.00;99.90;;;;;;4999634;28;20033;-77
2023/06/22 02:38:38;;;;;;;1.98;1.40;;;18.90;99.90;;;;;;5002176;28;21265;-77
2023/06/22 02:41:03;;;;;;;1.80;1.27;;;18.90;99.90;;;;;;5020936;28;20013;-77
2023/06/22 02:43:29;;;;;;;2.22;1.30;;;18.90;99.90;;;;;;5020334;28;20370;-78
2023/06/22 02:45:55;;;;;;;2.47;1.65;;;18.90;99.90;;;;;;5020035;28;20513;-77
2023/06/22 02:48:22;;;;;;;2.78;1.90;;;18.90;99.90;;;;;;5020715;28;20025;-78
2023/06/22 02:50:48;;;;;;;2.90;1.70;;;18.90;99.90;;;;;;5020254;28;20485;-78
2023/06/22 02:53:14;;;;;;;3.55;1.80;;;18.80;99.90;;;;;;4999346;28;20045;-77
2023/06/22 02:55:39;;;;;;;3.63;2.08;;;18.80;99.90;;;;;;5036316;28;20033;-77
2023/06/22 02:58:05;;;;;;;2.83;1.90;;;18.80;99.90;;;;;;5003051;28;20048;-78
2023/06/22 03:00:32;;;;;;;3.17;1.90;;;18.70;99.90;;;;;;5021248;28;20037;-77
2023/06/22 03:02:59;;;;;;;2.45;1.73;;;18.70;99.90;;;;;;5035361;28;20131;-78
2023/06/22 03:05:25;;;;;;;3.33;2.05;;;18.70;99.90;;;;;;5036290;28;20036;-78
2023/06/22 03:07:51;;;;;;;3.72;1.95;;;18.70;99.90;;;;;;5020883;28;20057;-77
2023/06/22 03:10:17;;;;;;;3.05;2.42;;;18.70;99.90;;;;;;5020519;28;20125;-77
2023/06/22 03:12:43;;;;;;;4.53;2.33;;;18.70;99.90;;;;;;5020504;28;20189;-77
2023/06/22 03:15:12;;;;;;;4.20;2.47;;;18.70;99.90;;;;;;5023843;28;20029;-78
2023/06/22 03:17:39;;;;;;;4.82;2.58;;;18.70;99.90;;;;;;5007262;28;20025;-77
2023/06/22 03:20:10;;;;;;;3.83;2.45;;;18.70;99.90;;;;;;5023487;28;20033;-77
2023/06/22 03:22:39;;;;;;;5.22;3.03;;;18.70;99.90;;;;;;5025219;28;20021;-78
2023/06/22 03:25:13;;;;;;;3.95;2.50;;;18.60;99.90;;;;;;5004312;28;20057;-78
2023/06/22 03:27:39;;;;;;;3.33;2.40;;;18.70;99.90;;;;;;5020662;28;20117;-78
2023/06/22 03:30:09;;;;;;;6.07;2.53;;;18.60;99.90;;;;;;5024728;28;20095;-78
2023/06/22 03:32:36;;;;;;;5.47;3.28;;;18.60;99.90;;;;;;5024927;28;20029;-78
2023/06/22 03:35:02;;;;;;;4.85;2.95;;;18.60;99.90;;;;;;5021750;28;20037;-78
2023/06/22 03:37:29;;;;;;;3.90;2.90;;;18.60;99.90;;;;;;5024917;28;20112;-79
2023/06/22 03:39:55;;;;;;;4.45;2.60;;;18.60;99.90;;;;;;5006203;28;20355;-78
2023/06/22 03:42:20;;;;;;;5.03;3.20;;;18.60;99.90;;;;;;5019758;28;20029;-78
2023/06/22 03:44:47;;;;;;;4.35;3.05;;;18.60;99.90;;;;;;5000506;28;20061;-78
2023/06/22 03:47:12;;;;;;;5.07;3.13;;;18.50;99.90;;;;;;5023359;28;20060;-78
2023/06/22 03:49:38;;;;;;;4.53;3.20;;;18.60;99.90;;;;;;5023796;28;20088;-78
2023/06/22 03:52:05;;;;;;;6.18;3.90;;;18.60;99.90;;;;;;5007996;28;20021;-78
2023/06/22 03:54:30;;;;;;;4.75;3.50;;;18.60;99.90;;;;;;5023924;28;20095;-78
2023/06/22 03:56:59;;;;;;;5.80;4.10;;;18.60;99.90;;;;;;5038268;28;20025;-79
2023/06/22 03:59:25;;;;;;;5.97;4.25;;;18.60;99.90;;;;;;5024455;28;20422;-78
2023/06/22 04:01:51;;;;;;;6.57;4.80;;;18.60;99.90;;;;;;5006898;28;20083;-78
2023/06/22 04:04:18;;;;;;;5.25;4.30;;;18.60;99.90;;;;;;5038810;28;20030;-78
2023/06/22 04:06:44;;;;;;;6.03;4.70;;;18.60;99.90;;;;;;5024526;28;20037;-78
2023/06/22 04:09:09;;;;;;;7.13;4.38;;;18.60;99.90;;;;;;5038162;28;20466;-78
2023/06/22 04:11:35;;;;;;;6.05;4.60;;;18.60;99.90;;;;;;5024127;28;20437;-78
2023/06/22 04:14:01;;;;;;;6.45;5.15;;;18.70;99.90;;;;;;5022913;28;20037;-78
2023/06/22 04:16:27;;;;;;;6.22;5.15;;;18.70;99.90;;;;;;5001131;28;20164;-78
2023/06/22 04:18:53;;;;;;;7.15;5.25;;;18.70;99.90;;;;;;5023886;28;20033;-78
2023/06/22 04:21:19;;;;;;;5.88;4.93;;;18.70;99.90;;;;;;5039379;28;20041;-79
2023/06/22 04:23:46;;;;;;;6.57;4.70;;;18.70;99.90;;;;;;5021705;28;20030;-79
2023/06/22 04:26:12;;;;;;;7.95;5.35;;;18.70;99.90;;;;;;4997800;28;20061;-78
2023/06/22 04:28:37;;;;;;;7.20;5.22;;;18.80;99.90;;;;;;5003884;28;20096;-78
2023/06/22 04:31:03;;;;;;;6.47;5.28;;;18.80;99.90;;;;;;5004181;28;20033;-78
2023/06/22 04:33:29;;;;;;;6.45;5.15;;;18.90;99.90;;;;;;5002615;28;20029;-78
2023/06/22 04:35:57;;;;;;;8.13;5.28;;;18.90;99.90;;;;;;5002914;28;20121;-78
2023/06/22 04:38:23;;;;;;;8.85;5.35;;;19.00;99.90;;;;;;5035040;28;20033;-78
2023/06/22 04:40:50;;;;;;;7.75;5.88;;;19.00;99.90;;;;;;5003277;28;20121;-78
2023/06/22 04:43:16;;;;;;;6.65;5.15;;;19.00;99.90;;;;;;5002660;28;20437;-78
2023/06/22 04:45:42;;;;;;;6.65;4.93;;;19.00;99.90;;;;;;4996968;28;20033;-79
2023/06/22 04:48:09;;;;;;;7.45;5.55;;;19.10;99.90;;;;;;5033941;28;20038;-78
2023/06/22 04:50:38;;;;;;;7.28;4.85;;;19.10;99.90;;;;;;4997688;28;20125;-78
2023/06/22 04:53:05;;;;;;;8.00;6.30;;;19.20;99.90;;;;;;5000833;28;20037;-78
2023/06/22 04:55:37;;;;;;;7.90;6.00;;;19.20;99.90;;;;;;4999811;28;20037;-79
2023/06/22 04:58:12;;;;;;;8.10;6.50;;;19.30;99.90;;;;;;5035550;28;20045;-79
2023/06/22 05:00:45;;;;;;;7.75;6.20;;;19.30;99.90;;;;;;5028693;28;20026;-79
2023/06/22 05:03:11;;;;;;;8.23;6.40;;;19.30;99.90;;;;;;5033323;28;20167;-78
2023/06/22 05:05:40;;;;;;;7.70;5.90;;;19.40;99.90;;;;;;4999560;28;20116;-79
2023/06/22 05:08:26;;;;;;;7.78;6.18;;;19.40;99.90;;;;;;5000493;28;20397;-78
2023/06/22 05:10:52;;;;;;;9.77;7.78;;;19.50;99.90;;;;;;5033150;28;20018;-78
2023/06/22 05:13:17;;;;;;;9.55;7.78;;;19.50;99.90;;;;;;5017762;28;20025;-79
2023/06/22 05:15:47;;;;;;;8.45;7.32;;;19.60;99.90;;;;;;5001552;28;20062;-79
2023/06/22 05:18:13;;;;;;;8.95;7.53;;;19.60;99.90;;;;;;5002563;28;20037;-79
2023/06/22 05:20:39;;;;;;;9.75;7.60;;;19.70;99.90;;;;;;5033799;28;20650;-79
2023/06/22 05:23:05;;;;;;;9.35;7.38;;;19.70;99.90;;;;;;4999341;28;20025;-79
2023/06/22 05:25:32;;;;;;;10.15;7.43;;;19.80;99.90;;;;;;5001061;28;20448;-79
2023/06/22 05:27:58;;;;;;;9.25;7.28;;;19.80;99.90;;;;;;5001238;28;20045;-79
2023/06/22 05:30:26;;;;;;;10.80;9.18;;;19.80;99.90;;;;;;4996180;28;20029;-79
2023/06/22 05:32:53;;;;;;;8.75;7.30;;;19.90;99.90;;;;;;5033218;28;20037;-79
2023/06/22 05:35:18;;;;;;;10.07;7.18;;;19.90;99.90;;;;;;5001851;28;20065;-79
2023/06/22 05:37:44;;;;;;;7.47;6.32;;;19.90;99.90;;;;;;4999088;28;20112;-79
2023/06/22 05:40:12;;;;;;;7.78;6.20;;;20.00;99.90;;;;;;5034538;28;20373;-78
2023/06/22 05:42:37;;;;;;;9.95;6.85;;;20.00;99.90;;;;;;4997211;28;20045;-79
2023/06/22 05:45:04;;;;;;;8.35;6.35;;;20.10;99.90;;;;;;5000404;28;20038;-79
2023/06/22 05:47:29;;;;;;;7.70;6.28;;;20.20;99.90;;;;;;5001245;28;20037;-78
2023/06/22 05:49:55;;;;;;;7.57;6.38;;;20.20;99.90;;;;;;5015495;28;20109;-80
2023/06/22 05:52:20;;;;;;;7.57;5.60;;;20.20;99.90;;;;;;5033755;28;20108;-78
2023/06/22 05:54:46;;;;;;;9.18;7.03;;;20.30;99.90;;;;;;5000690;28;20044;-78
2023/06/22 05:57:13;;;;;;;7.80;5.57;;;20.40;99.90;;;;;;5000136;28;20028;-78
2023/06/22 05:59:39;;;;;;;7.57;6.07;;;20.40;99.90;;;;;;5011182;28;20177;-78
2023/06/22 06:02:05;;;;;;;7.93;5.90;;;20.50;99.90;;;;;;5032611;28;20022;-78
2023/06/22 06:04:31;;;;;;;7.65;6.13;;;20.60;99.90;;;;;;5000684;28;20045;-78
2023/06/22 06:06:57;;;;;;;7.88;5.82;;;20.60;99.90;;;;;;4994830;28;20022;-78
2023/06/22 06:09:22;;;;;;;7.07;5.68;;;20.70;99.90;;;;;;5001472;28;20338;-78
2023/06/22 06:11:50;;;;;;;6.97;5.43;;;20.80;99.90;;;;;;5001315;28;20022;-78
2023/06/22 06:14:17;;;;;;;6.93;5.13;;;20.90;99.90;;;;;;5032746;28;20520;-78
2023/06/22 06:16:42;;;;;;;8.30;5.15;;;21.00;99.90;;;;;;5001874;28;20026;-78
2023/06/22 06:19:08;;;;;;;6.72;5.07;;;21.10;99.90;;;;;;4997572;28;20025;-77
2023/06/22 06:21:34;;;;;;;5.63;4.32;;;21.10;99.90;;;;;;5001220;28;20033;-79
2023/06/22 06:24:00;;;;;;;7.40;5.20;;;21.20;99.90;;;;;;4995325;28;20036;-78
2023/06/22 06:26:29;;;;;;;6.55;5.43;;;21.30;99.90;;;;;;5032065;28;20041;-78
2023/06/22 06:28:57;;;;;;;6.50;5.50;;;21.30;99.90;;;;;;4994939;28;20117;-79
2023/06/22 06:31:23;;;;;;;6.53;5.43;;;21.40;99.90;;;;;;4991954;28;20478;-78
2023/06/22 06:33:50;;;;;;;8.73;6.15;;;21.50;99.90;;;;;;5032032;28;20044;-79
2023/06/22 06:36:16;;;;;;;6.32;5.63;;;21.60;99.90;;;;;;4996172;28;20033;-79
2023/06/22 06:38:41;;;;;;;5.63;4.63;;;21.60;99.90;;;;;;5001272;28;20056;-79
2023/06/22 06:41:09;;;;;;;5.70;4.78;;;21.70;99.90;;;;;;4994466;28;20496;-79
2023/06/22 06:43:34;;;;;;;7.40;5.60;;;21.90;99.90;;;;;;4993932;28;20038;-79
2023/06/22 06:46:03;;;;;;;6.85;4.93;;;22.00;99.90;;;;;;4995298;28;20363;-79
2023/06/22 06:48:28;;;;;;;8.00;5.95;;;22.10;99.90;;;;;;5001128;28;20515;-79
2023/06/22 06:50:56;;;;;;;7.60;5.93;;;22.10;99.90;;;;;;5001065;28;20095;-79
2023/06/22 06:53:22;;;;;;;6.65;5.18;;;22.20;99.90;;;;;;4999711;28;20018;-79
2023/06/22 06:55:48;;;;;;;8.05;5.40;;;22.30;99.90;;;;;;4997327;28;20045;-79
2023/06/22 06:58:16;;;;;;;5.38;4.30;;;22.40;99.90;;;;;;5000181;28;20126;-79
2023/06/22 07:00:43;;;;;;;6.93;5.25;;;22.50;99.90;;;;;;5010683;28;20034;-78
2023/06/22 07:03:09;;;;;;;6.00;4.18;;;22.70;99.90;;;;;;5000473;28;20070;-79
2023/06/22 07:05:36;;;;;;;7.07;5.32;;;22.70;99.90;;;;;;5031819;28;20034;-79
2023/06/22 07:08:02;;;;;;;5.65;4.60;;;22.80;99.90;;;;;;4998917;28;20025;-79
2023/06/22 07:10:28;;;;;;;5.43;4.07;;;22.80;99.90;;;;;;4998714;28;20037;-79
2023/06/22 07:12:54;;;;;;;5.65;4.60;;;22.90;99.90;;;;;;4999254;28;20040;-79
2023/06/22 07:15:20;;;;;;;6.10;4.18;;;23.00;99.90;;;;;;5032132;28;20034;-79
2023/06/22 07:17:45;;;;;;;4.53;3.58;;;23.00;99.90;;;;;;5032456;28;20033;-79
2023/06/22 07:20:12;;;;;;;5.07;3.97;;;23.00;99.90;;;;;;4999322;28;20033;-79
2023/06/22 07:22:44;;;;;;;6.03;4.20;;;23.10;99.90;;;;;;4999775;28;20444;-79
2023/06/22 07:25:13;;;;;;;5.93;3.53;;;23.10;99.90;;;;;;4998442;28;20050;-78
2023/06/22 07:27:44;;;;;;;4.90;3.67;;;23.20;99.90;;;;;;4996220;28;20466;-78
2023/06/22 07:30:11;;;;;;;5.88;3.47;;;23.20;99.90;;;;;;4999262;28;20057;-79
2023/06/22 07:32:37;;;;;;;8.27;4.32;;;23.20;99.90;;;;;;5001429;28;20096;-78
2023/06/22 07:35:04;;;;;;;7.10;4.50;;;23.30;99.90;;;;;;4999921;28;20389;-79
2023/06/22 07:37:33;;;;;;;5.70;4.25;;;23.30;99.90;;;;;;5031746;28;20022;-79
2023/06/22 07:40:06;;;;;;;4.97;3.80;;;23.30;99.90;;;;;;4999219;28;20029;-79
2023/06/22 07:42:32;;;;;;;5.25;3.95;;;23.30;99.90;;;;;;4999746;28;20034;-79
2023/06/22 07:44:58;;;;;;;5.07;3.75;;;23.40;99.90;;;;;;5000463;28;20386;-79
2023/06/22 07:47:28;;;;;;;4.40;3.78;;;23.50;99.90;;;;;;4998769;28;20034;-79
2023/06/22 07:49:54;;;;;;;4.47;3.25;;;23.60;99.90;;;;;;5031024;28;20030;-80
2023/06/22 07:52:20;;;;;;;4.38;3.25;;;23.70;99.90;;;;;;4993983;28;20857;-79
2023/06/22 07:54:47;;;;;;;4.50;3.72;;;23.80;99.90;;;;;;4999910;28;20040;-79
2023/06/22 07:57:14;;;;;;;6.32;3.92;;;23.90;99.90;;;;;;4997968;28;20034;-79
2023/06/22 07:59:41;;;;;;;5.20;3.92;;;24.00;99.90;;;;;;5000272;28;20057;-79
2023/06/22 08:02:09;;;;;;;4.25;3.45;;;24.00;99.90;;;;;;5003632;28;20044;-79
2023/06/22 08:04:34;;;;;;;4.45;3.00;;;24.10;99.90;;;;;;5033801;28;20876;-79
2023/06/22 08:07:02;;;;;;;4.45;3.10;;;24.20;99.90;;;;;;4996636;28;20120;-79
2023/06/22 08:09:32;;;;;;;5.60;3.67;;;24.30;99.90;;;;;;5035451;28;20038;-79
2023/06/22 08:11:58;;;;;;;5.90;3.72;;;24.30;99.90;;;;;;4995533;28;20773;-79
2023/06/22 08:14:26;;;;;;;4.22;3.17;;;24.30;99.90;;;;;;5004084;28;20084;-79
2023/06/22 08:16:53;;;;;;;3.60;2.78;;;24.40;99.90;;;;;;5035313;28;20058;-79
2023/06/22 08:19:20;;;;;;;3.92;2.88;;;24.50;99.90;;;;;;5004398;28;20055;-78
2023/06/22 08:21:46;;;;;;;4.18;3.20;;;24.60;99.90;;;;;;4998605;28;20030;-78
2023/06/22 08:24:13;;;;;;;5.25;3.10;;;24.60;99.90;;;;;;4995539;28;20033;-78
2023/06/22 08:26:40;;;;;;;4.50;3.50;;;24.70;99.90;;;;;;5036716;28;20053;-79
2023/06/22 08:29:06;;;;;;;4.88;3.30;;;24.80;99.90;;;;;;4995946;28;20041;-79
2023/06/22 08:31:34;;;;;;;4.05;3.30;;;24.90;99.90;;;;;;5003154;28;20038;-79
2023/06/22 08:34:00;;;;;;;3.95;2.85;;;25.00;99.90;;;;;;5034938;28;20054;-79
2023/06/22 08:36:30;;;;;;;4.80;3.05;;;25.20;99.90;;;;;;5000440;28;20149;-79
2023/06/22 08:39:01;;;;;;;4.25;3.00;;;25.30;99.90;;;;;;5033967;28;20141;-80
2023/06/22 08:41:29;;;;;;;4.93;2.97;;;25.50;99.90;;;;;;5003223;28;20034;-79
2023/06/22 08:43:55;;;;;;;3.40;2.63;;;25.70;99.90;;;;;;5002648;28;20036;-79
2023/06/22 08:46:23;;;;;;;3.58;2.67;;;25.80;99.90;;;;;;5002753;28;20044;-79
2023/06/22 08:48:50;;;;;;;4.68;3.30;;;26.00;99.90;;;;;;5001942;28;20103;-78
2023/06/22 08:51:17;;;;;;;3.20;2.60;;;26.10;99.90;;;;;;5003365;28;20466;-79
2023/06/22 08:53:43;;;;;;;3.55;2.67;;;26.20;99.90;;;;;;5034844;28;20034;-79
2023/06/22 08:56:09;;;;;;;4.60;2.90;;;26.20;99.90;;;;;;5001956;28;20029;-79
2023/06/22 08:58:35;;;;;;;3.45;2.45;;;26.20;99.90;;;;;;4997029;28;20040;-79
2023/06/22 09:01:01;;;;;;;3.85;2.55;;;26.10;99.90;;;;;;4997256;28;20034;-79
2023/06/22 09:03:27;;;;;;;4.22;2.63;;;26.10;99.90;;;;;;5033720;28;20033;-78
2023/06/22 09:05:54;;;;;;;2.95;2.33;;;26.10;99.90;;;;;;5002218;28;20089;-78
2023/06/22 09:08:24;;;;;;;3.75;2.45;;;26.10;99.90;;;;;;5002674;28;20025;-79
2023/06/22 09:10:50;;;;;;;4.28;2.67;;;26.30;99.90;;;;;;5002157;28;20390;-78
2023/06/22 09:13:15;;;;;;;3.95;2.67;;;26.50;99.90;;;;;;4995859;28;20030;-79
2023/06/22 09:15:41;;;;;;;3.85;2.85;;;26.70;99.90;;;;;;5001270;28;20587;-78
2023/06/22 09:18:11;;;;;;;3.33;2.30;;;26.80;99.90;;;;;;5002267;28;20494;-78
2023/06/22 09:20:36;;;;;;;2.90;2.55;;;27.00;99.90;;;;;;5003080;28;20025;-79
2023/06/22 09:23:02;;;;;;;3.15;2.67;;;27.10;99.90;;;;;;5001385;28;20029;-79
2023/06/22 09:25:28;;;;;;;2.88;2.25;;;27.00;99.90;;;;;;5033789;28;20683;-79
2023/06/22 09:27:53;;;;;;;3.50;2.40;;;27.10;99.90;;;;;;4993905;28;20098;-79
2023/06/22 09:30:19;;;;;;;4.05;2.35;;;27.00;99.90;;;;;;5033623;28;20026;-79
2023/06/22 09:32:47;;;;;;;4.07;2.70;;;27.00;99.90;;;;;;5000550;28;20041;-79
2023/06/22 09:35:13;;;;;;;4.63;3.00;;;26.90;99.90;;;;;;4997522;28;20049;-79
2023/06/22 09:37:39;;;;;;;4.65;3.00;;;26.70;99.90;;;;;;5031949;28;20483;-80
2023/06/22 09:40:12;;;;;;;2.72;2.40;;;26.50;99.90;;;;;;4995895;28;20033;-80
2023/06/22 09:42:38;;;;;;;3.60;2.20;;;26.30;99.90;;;;;;4995779;28;20022;-79
2023/06/22 09:45:04;;;;;;;3.15;2.42;;;26.30;99.90;;;;;;5000752;28;20036;-79
2023/06/22 09:47:30;;;;;;;2.90;2.10;;;26.30;99.90;;;;;;4996236;28;20029;-79
2023/06/22 09:49:59;;;;;;;3.50;2.22;;;26.20;99.90;;;;;;5000078;28;20092;-79
2023/06/22 09:52:25;;;;;;;2.53;2.00;;;26.20;99.90;;;;;;5033318;28;20033;-80
2023/06/22 09:54:50;;;;;;;2.67;1.95;;;26.20;99.90;;;;;;5032761;28;20394;-79
2023/06/22 09:57:16;;;;;;;3.47;2.17;;;26.10;99.90;;;;;;5000412;28;20065;-80
2023/06/22 09:59:42;;;;;;;4.53;2.17;;;26.00;99.90;;;;;;5033063;28;20128;-79
2023/06/22 10:02:08;;;;;;;2.30;2.00;;;26.00;99.90;;;;;;5000590;28;20029;-79
2023/06/22 10:04:35;;;;;;;3.25;2.13;;;25.90;99.90;;;;;;5001660;28;20104;-79
2023/06/22 10:07:01;;;;;;;2.72;2.10;;;25.80;99.90;;;;;;4998877;28;20034;-78
2023/06/22 10:09:27;;;;;;;2.88;2.08;;;25.70;99.90;;;;;;5003248;28;20056;-79
2023/06/22 10:11:53;;;;;;;3.03;2.10;;;25.60;99.90;;;;;;5002391;28;20030;-79
2023/06/22 10:14:19;;;;;;;2.25;1.90;;;25.60;99.90;;;;;;4995590;28;20032;-79
2023/06/22 10:16:46;;;;;;;3.53;2.05;;;25.50;99.90;;;;;;5031959;28;20032;-78
2023/06/22 10:19:12;;;;;;;3.25;1.92;;;25.50;99.90;;;;;;4995963;28;20036;-79
2023/06/22 10:21:40;;;;;;;3.47;2.20;;;25.50;99.90;;;;;;5011254;28;20409;-78
2023/06/22 10:24:06;;;;;;;3.13;2.03;;;25.40;99.90;;;;;;5000811;28;20052;-78
2023/06/22 10:26:36;;;;;;;3.10;2.13;;;25.40;99.90;;;;;;5000026;28;20974;-78
2023/06/22 10:29:03;;;;;;;3.03;2.20;;;25.50;99.90;;;;;;5000506;28;20026;-79
2023/06/22 10:31:30;;;;;;;3.10;2.10;;;25.40;99.90;;;;;;5030178;28;20118;-78
2023/06/22 10:33:56;;;;;;;2.88;2.25;;;25.40;99.90;;;;;;4994296;28;20397;-78
2023/06/22 10:36:22;;;;;;;3.65;2.22;;;25.40;99.90;;;;;;4994735;28;20026;-78
2023/06/22 10:38:48;;;;;;;2.67;2.10;;;25.40;99.90;;;;;;5032145;28;20497;-78
2023/06/22 10:41:15;;;;;;;2.50;1.90;;;25.50;99.90;;;;;;5000811;28;20037;-78
2023/06/22 10:43:41;;;;;;;2.80;1.92;;;25.50;99.90;;;;;;5033679;28;20025;-78
2023/06/22 10:46:07;;;;;;;2.47;1.95;;;25.50;99.90;;;;;;5003565;28;20030;-78
2023/06/22 10:48:33;;;;;;;2.83;1.80;;;25.50;99.90;;;;;;5001143;28;20045;-79
2023/06/22 10:50:59;;;;;;;3.00;2.20;;;25.60;99.90;;;;;;5031760;28;20430;-78
2023/06/22 10:53:25;;;;;;;3.00;2.03;;;25.60;99.90;;;;;;5000965;28;20061;-78
2023/06/22 10:55:52;;;;;;;3.97;2.22;;;25.60;99.90;;;;;;4999709;28;20042;-78
2023/06/22 10:58:20;;;;;;;3.25;2.45;;;25.60;99.90;;;;;;5001651;28;20496;-78
2023/06/22 11:00:46;;;;;;;3.70;2.60;;;25.60;99.90;;;;;;5000982;28;20053;-78
2023/06/22 11:03:14;;;;;;;2.70;2.00;;;25.50;99.90;;;;;;4993843;28;20431;-77
2023/06/22 11:05:40;;;;;;;2.72;2.20;;;25.50;99.90;;;;;;5000791;28;20379;-78
2023/06/22 11:08:07;;;;;;;3.88;2.63;;;25.50;99.90;;;;;;5013369;28;20145;-77
2023/06/22 11:10:34;;;;;;;3.00;2.15;;;25.40;99.90;;;;;;4998684;28;20417;-78
2023/06/22 11:13:02;;;;;;;3.42;2.70;;;25.40;99.90;;;;;;4999909;28;20099;-78
2023/06/22 11:15:28;;;;;;;4.15;2.47;;;25.40;99.90;;;;;;5032895;28;20045;-78
2023/06/22 11:17:53;;;;;;;3.97;2.63;;;25.40;99.90;;;;;;4994945;28;20033;-77
2023/06/22 11:20:20;;;;;;;3.03;2.42;;;25.40;99.90;;;;;;5000931;28;20030;-77
2023/06/22 11:22:47;;;;;;;3.00;1.95;;;25.50;99.90;;;;;;5012206;28;20041;-78
2023/06/22 11:25:12;;;;;;;4.10;2.30;;;25.50;99.90;;;;;;5000631;28;20068;-78
2023/06/22 11:27:39;;;;;;;2.85;2.17;;;25.40;99.90;;;;;;4992032;28;22392;-77
2023/06/22 11:30:06;;;;;;;3.50;2.45;;;25.40;99.90;;;;;;4993706;28;20030;-77
2023/06/22 11:32:31;;;;;;;2.90;2.17;;;25.30;99.90;;;;;;5028580;28;20508;-77
2023/06/22 11:34:57;;;;;;;3.67;2.90;;;25.10;99.90;;;;;;4994914;28;20030;-78
2023/06/22 11:37:27;;;;;;;2.88;2.42;;;25.10;99.90;;;;;;5033258;28;20037;-78
2023/06/22 11:39:54;;;;;;;4.10;2.97;;;24.90;99.90;;;;;;5002360;28;20027;-78
2023/06/22 11:42:23;;;;;;;4.85;2.50;;;24.80;99.90;;;;;;5034896;28;20033;-78
2023/06/22 11:44:49;;;;;;;4.40;3.30;;;24.60;99.90;;;;;;5002520;28;20065;-77
2023/06/22 11:47:15;;;;;;;3.30;2.70;;;24.50;99.90;;;;;;5002627;28;20121;-77
2023/06/22 11:49:41;;;;;;;4.15;2.97;;;24.30;99.90;;;;;;5012219;28;20489;-78
2023/06/22 11:52:08;;;;;;;3.28;2.63;;;24.20;99.90;;;;;;5000351;28;20025;-78
2023/06/22 11:54:34;;;;;;;3.35;2.55;;;24.20;99.90;;;;;;4996840;28;20033;-77
2023/06/22 11:56:59;;;;;;;4.20;2.90;;;24.00;99.90;;;;;;5002401;28;20045;-78
2023/06/22 11:59:25;;;;;;;4.57;3.40;;;24.00;99.90;;;;;;5000939;28;20788;-78
2023/06/22 12:01:51;;;;;;;3.58;3.00;;;23.90;99.90;;;;;;5013666;28;20061;-79
2023/06/22 12:04:20;;;;;;;3.97;3.10;;;23.70;99.90;;;;;;5033759;28;20557;-79
2023/06/22 12:06:49;;;;;;;5.88;3.88;;;23.50;99.90;;;;;;4993816;28;20145;-80
2023/06/22 12:09:14;;;;;;;4.50;3.60;;;23.40;99.90;;;;;;5002049;28;20037;-80
2023/06/22 12:11:40;;;;;;;5.65;3.72;;;23.20;99.90;;;;;;5002616;28;20038;-81
2023/06/22 12:14:09;;;;;;;5.28;3.70;;;23.10;99.90;;;;;;4999370;28;20026;-83
2023/06/22 12:16:35;;;;;;;4.55;3.60;;;23.00;99.90;;;;;;5002588;28;20038;-84
2023/06/22 12:19:04;;;;;;;4.88;3.72;;;22.90;99.90;;;;;;4999252;28;20034;-84
2023/06/22 12:21:31;;;;;;;6.25;3.65;;;22.80;99.90;;;;;;5010554;28;20475;-86
2023/06/22 12:24:01;;;;;;;9.40;4.40;;;22.70;99.90;;;;;;4999836;28;20025;-84
2023/06/22 12:26:27;;;;;;;7.68;4.03;;;22.60;99.90;;;;;;5000343;28;20053;-85
2023/06/22 12:28:55;;;;;;;5.25;3.83;;;22.50;99.90;;;;;;5033160;28;20103;-85
2023/06/22 12:31:21;;;;;;;5.30;4.05;;;22.40;99.90;;;;;;4999696;28;20029;-86
2023/06/22 12:33:51;;;;;;;6.93;4.78;;;22.30;99.90;;;;;;5001369;28;20022;-84
2023/06/22 12:36:17;;;;;;;5.20;3.97;;;22.20;99.90;;;;;;5001168;28;20034;-85
2023/06/22 12:38:42;;;;;;;5.65;4.00;;;22.10;99.90;;;;;;5032989;28;20030;-86
2023/06/22 12:41:08;;;;;;;5.85;4.00;;;22.00;99.90;;;;;;4997008;28;20689;-87
2023/06/22 12:43:35;;;;;;;5.80;4.70;;;21.90;99.90;;;;;;5033877;28;20045;-86
2023/06/22 12:46:00;;;;;;;4.50;3.85;;;21.70;99.90;;;;;;4999943;28;20381;-86
2023/06/22 12:48:27;;;;;;;5.75;4.65;;;21.60;99.90;;;;;;5002811;28;20037;-86